Time;durP1;ratioP1;P1;durP2;ratioP2;P2;SDS_P1;SDS_P2;PMS_P1;PMS_P2;Temp;Humidity;BMP_temperature;BMP_pressure;BME280_temperature;BME280_humidity;BME280_pressure;Samples;Min_cycle;Max_cycle;Signal;HPM_P1;HPM_P2
2023/03/26 00:00:47;;;;;;;11.82;3.15;;;7.40;99.90;;;;;;4982253;28;20135;-78
2023/03/26 00:03:15;;;;;;;13.50;2.95;;;7.40;99.90;;;;;;4998306;28;20401;-77
2023/03/26 00:05:42;;;;;;;18.67;3.25;;;7.40;99.90;;;;;;4982978;28;20066;-77
2023/03/26 00:08:08;;;;;;;13.73;2.80;;;7.30;99.90;;;;;;4997454;28;20077;-76
2023/03/26 00:10:39;;;;;;;11.77;2.67;;;6.40;99.90;;;;;;4982428;28;20085;-76
2023/03/26 00:13:05;;;;;;;16.15;3.25;;;7.30;99.90;;;;;;4997634;28;20405;-76
2023/03/26 00:15:32;;;;;;;17.45;3.17;;;7.30;99.90;;;;;;4983105;28;20093;-76
2023/03/26 00:18:00;;;;;;;13.00;2.50;;;7.40;99.90;;;;;;4998893;28;20103;-77
2023/03/26 00:20:27;;;;;;;13.65;2.38;;;7.30;99.90;;;;;;4999252;28;20057;-76
2023/03/26 00:22:54;;;;;;;19.00;3.28;;;7.30;99.90;;;;;;4965306;28;20049;-77
2023/03/26 00:25:22;;;;;;;15.10;2.53;;;7.30;99.90;;;;;;4998754;28;20049;-78
2023/03/26 00:27:49;;;;;;;12.70;2.10;;;7.30;99.90;;;;;;4998404;28;20112;-77
2023/03/26 00:30:15;;;;;;;12.82;2.40;;;7.30;99.90;;;;;;4999392;28;20050;-76
2023/03/26 00:32:42;;;;;;;11.07;2.60;;;7.30;99.90;;;;;;4981266;28;20124;-77
2023/03/26 00:35:09;;;;;;;17.02;3.08;;;7.30;99.90;;;;;;4996848;28;20058;-77
2023/03/26 00:37:36;;;;;;;13.75;2.90;;;7.30;99.90;;;;;;4997926;28;20053;-76
2023/03/26 00:40:07;;;;;;;13.90;2.85;;;7.30;99.90;;;;;;4964146;28;20053;-77
2023/03/26 00:42:33;;;;;;;12.52;2.60;;;7.30;99.90;;;;;;4998022;28;20045;-77
2023/03/26 00:44:59;;;;;;;13.85;2.85;;;7.30;99.90;;;;;;4964962;28;20050;-76
2023/03/26 00:47:27;;;;;;;18.90;2.70;;;7.20;99.90;;;;;;5000276;28;20501;-77
2023/03/26 00:49:53;;;;;;;20.92;2.95;;;7.20;99.90;;;;;;4997042;28;20046;-78
2023/03/26 00:52:19;;;;;;;16.52;2.85;;;7.20;99.90;;;;;;4996621;28;20937;-81
2023/03/26 00:54:46;;;;;;;12.23;2.67;;;7.20;99.90;;;;;;4998425;28;20060;-76
2023/03/26 00:57:13;;;;;;;15.93;3.13;;;7.20;99.90;;;;;;4998445;28;20057;-78
2023/03/26 00:59:42;;;;;;;15.18;3.72;;;7.20;99.90;;;;;;4999145;28;20049;-76
2023/03/26 01:02:15;;;;;;;16.85;2.92;;;7.20;99.90;;;;;;4997206;28;20065;-78
2023/03/26 01:04:44;;;;;;;20.83;2.75;;;7.20;99.90;;;;;;4997126;28;20057;-75
2023/03/26 01:07:13;;;;;;;15.18;2.65;;;7.10;99.90;;;;;;4981950;28;20496;-77
2023/03/26 01:09:44;;;;;;;12.68;2.40;;;7.20;99.90;;;;;;4981380;28;20153;-77
2023/03/26 01:12:17;;;;;;;16.88;3.38;;;7.10;99.90;;;;;;4997246;28;20385;-78
2023/03/26 01:14:44;;;;;;;16.40;3.00;;;7.20;99.90;;;;;;4979796;28;20152;-76
2023/03/26 01:17:12;;;;;;;13.57;2.97;;;7.10;99.90;;;;;;4995352;28;20141;-78
2023/03/26 01:19:47;;;;;;;15.23;2.55;;;7.10;99.90;;;;;;4997448;28;20062;-77
2023/03/26 01:22:16;;;;;;;14.32;2.75;;;7.10;99.90;;;;;;4997169;28;20061;-76
2023/03/26 01:24:44;;;;;;;18.80;3.03;;;7.00;99.90;;;;;;4997643;28;20046;-76
2023/03/26 01:27:37;;;;;;;11.93;2.45;;;7.00;99.90;;;;;;4997539;28;20055;-76
2023/03/26 01:30:20;;;;;;;18.50;3.30;;;7.00;99.90;;;;;;4980852;28;20092;-78
2023/03/26 01:33:05;;;;;;;14.20;2.63;;;7.00;99.90;;;;;;5005765;28;20050;-75
2023/03/26 01:35:50;;;;;;;19.60;3.07;;;7.00;99.90;;;;;;4997361;28;20521;-76
2023/03/26 01:38:47;;;;;;;14.98;2.40;;;7.00;99.90;;;;;;4997144;28;20054;-78
2023/03/26 01:41:33;;;;;;;15.48;2.63;;;7.00;99.90;;;;;;4980922;28;20108;-77
2023/03/26 01:44:27;;;;;;;11.95;2.97;;;7.00;99.90;;;;;;5014135;28;20057;-77
2023/03/26 01:46:54;;;;;;;15.13;2.97;;;8.20;99.90;;;;;;4997651;28;20056;-77
2023/03/26 01:49:20;;;;;;;18.70;3.50;;;6.90;99.90;;;;;;4982059;28;20046;-77
2023/03/26 01:51:47;;;;;;;16.27;2.90;;;6.90;99.90;;;;;;4983278;28;20050;-76
2023/03/26 01:54:20;;;;;;;12.70;2.60;;;6.90;99.90;;;;;;5005222;28;20050;-76
2023/03/26 01:57:04;;;;;;;14.13;2.78;;;6.90;99.90;;;;;;4985436;28;20105;-75
2023/03/26 02:00:22;;;;;;;16.75;2.97;;;6.90;99.90;;;;;;4986326;28;20043;-76
2023/03/26 02:03:19;;;;;;;22.08;3.60;;;7.00;99.90;;;;;;4995541;28;20145;-76
2023/03/26 02:05:49;;;;;;;23.40;3.20;;;7.00;99.90;;;;;;4985178;28;20072;-76
2023/03/26 02:08:34;;;;;;;15.48;2.70;;;7.00;99.90;;;;;;5001397;28;20124;-76
2023/03/26 02:11:04;;;;;;;13.20;2.72;;;6.90;99.90;;;;;;5000468;28;20097;-77
2023/03/26 02:13:38;;;;;;;18.83;2.97;;;6.90;99.90;;;;;;5000942;28;20038;-76
2023/03/26 02:16:15;;;;;;;19.65;2.95;;;6.80;99.90;;;;;;5000081;28;20050;-78
2023/03/26 02:18:42;;;;;;;16.38;3.25;;;6.80;99.90;;;;;;5001097;28;20412;-76
2023/03/26 02:21:20;;;;;;;12.98;2.63;;;6.80;99.90;;;;;;4985122;28;20193;-77
2023/03/26 02:23:49;;;;;;;14.75;2.42;;;6.80;99.90;;;;;;5001446;28;20062;-77
2023/03/26 02:26:21;;;;;;;13.82;2.60;;;6.80;99.90;;;;;;5000818;28;20103;-76
2023/03/26 02:28:46;;;;;;;18.80;2.67;;;6.80;99.90;;;;;;4983529;28;20412;-78
2023/03/26 02:31:14;;;;;;;12.23;2.28;;;6.70;99.90;;;;;;4984586;28;20048;-76
2023/03/26 02:33:43;;;;;;;11.55;2.47;;;6.70;99.90;;;;;;5000849;28;20085;-77
2023/03/26 02:36:12;;;;;;;17.27;3.03;;;6.70;99.90;;;;;;5000370;28;20053;-77
2023/03/26 02:38:38;;;;;;;17.20;2.72;;;6.70;99.90;;;;;;5015574;28;20751;-77
2023/03/26 02:41:04;;;;;;;12.23;3.13;;;6.60;99.90;;;;;;5000466;28;20060;-78
2023/03/26 02:43:30;;;;;;;10.38;2.17;;;6.60;99.90;;;;;;4968114;28;20046;-77
2023/03/26 02:45:56;;;;;;;9.90;2.55;;;6.50;99.90;;;;;;4983798;28;20043;-77
2023/03/26 02:48:22;;;;;;;13.40;2.80;;;6.50;99.90;;;;;;4999921;28;20046;-77
2023/03/26 02:50:53;;;;;;;13.48;2.65;;;6.50;99.90;;;;;;5001460;28;20132;-76
2023/03/26 02:53:22;;;;;;;18.90;2.83;;;6.50;99.90;;;;;;4990092;28;20049;-80
2023/03/26 02:55:57;;;;;;;12.93;2.97;;;6.40;99.90;;;;;;4985549;28;20220;-77
2023/03/26 02:58:25;;;;;;;12.27;2.50;;;6.50;99.90;;;;;;5000209;28;20409;-75
2023/03/26 03:00:53;;;;;;;12.10;2.58;;;6.50;99.90;;;;;;5000364;28;20086;-76
2023/03/26 03:03:28;;;;;;;13.07;3.13;;;6.50;99.90;;;;;;4982612;28;21269;-78
2023/03/26 03:05:55;;;;;;;12.03;2.43;;;6.50;99.90;;;;;;5000186;28;20058;-77
2023/03/26 03:08:25;;;;;;;9.52;3.30;;;6.50;99.90;;;;;;4999678;28;20299;-76
2023/03/26 03:11:03;;;;;;;13.60;1.85;;;6.50;99.90;;;;;;5000147;28;20042;-76
2023/03/26 03:13:29;;;;;;;14.77;2.80;;;6.50;99.90;;;;;;4998044;28;20042;-77
2023/03/26 03:15:55;;;;;;;11.30;2.88;;;6.50;99.90;;;;;;4983675;28;20171;-76
2023/03/26 03:18:24;;;;;;;10.82;2.42;;;6.60;99.90;;;;;;5001299;28;20493;-76
2023/03/26 03:20:50;;;;;;;13.63;3.05;;;6.60;99.90;;;;;;5000129;28;20048;-77
2023/03/26 03:23:16;;;;;;;9.63;2.45;;;6.60;99.90;;;;;;4983223;28;20053;-78
2023/03/26 03:25:42;;;;;;;13.95;2.67;;;6.60;99.90;;;;;;4998492;28;20050;-76
2023/03/26 03:28:08;;;;;;;21.17;3.08;;;6.60;99.90;;;;;;4999036;28;20515;-76
2023/03/26 03:30:34;;;;;;;16.25;2.92;;;6.60;99.90;;;;;;5000026;28;20125;-77
2023/03/26 03:33:01;;;;;;;16.08;3.33;;;6.60;99.90;;;;;;4999308;28;20124;-77
2023/03/26 03:35:28;;;;;;;15.98;3.28;;;6.70;99.90;;;;;;4998486;28;20045;-76
2023/03/26 03:37:58;;;;;;;12.65;3.45;;;6.70;99.90;;;;;;4997800;28;20054;-76
2023/03/26 03:40:24;;;;;;;13.45;2.97;;;6.90;99.90;;;;;;4966980;28;20068;-77
2023/03/26 03:42:50;;;;;;;19.17;2.90;;;6.70;99.90;;;;;;4999582;28;20046;-77
2023/03/26 03:45:16;;;;;;;16.70;3.47;;;6.70;99.90;;;;;;4983067;28;20046;-77
2023/03/26 03:47:42;;;;;;;9.70;2.65;;;6.70;99.90;;;;;;4998202;28;20054;-77
2023/03/26 03:50:09;;;;;;;15.07;2.80;;;6.70;99.90;;;;;;4997496;28;20493;-76
2023/03/26 03:52:35;;;;;;;14.40;2.58;;;6.70;99.90;;;;;;4999585;28;20469;-77
2023/03/26 03:55:01;;;;;;;12.25;2.30;;;6.60;99.90;;;;;;4999716;28;20085;-77
2023/03/26 03:57:28;;;;;;;16.50;3.35;;;6.60;99.90;;;;;;4999296;28;20096;-76
2023/03/26 03:59:57;;;;;;;13.52;2.50;;;6.60;99.90;;;;;;4998401;28;20045;-75
2023/03/26 04:02:33;;;;;;;12.93;2.25;;;6.60;99.90;;;;;;4984136;28;20064;-76
2023/03/26 04:05:06;;;;;;;17.10;2.47;;;6.60;99.90;;;;;;5000994;28;20108;-75
2023/03/26 04:07:38;;;;;;;17.20;2.17;;;6.60;99.90;;;;;;4999491;28;20104;-75
2023/03/26 04:10:07;;;;;;;13.40;2.42;;;6.60;99.90;;;;;;4967804;28;20034;-76
2023/03/26 04:12:32;;;;;;;12.50;2.30;;;6.50;99.90;;;;;;4994481;28;20223;-78
2023/03/26 04:14:58;;;;;;;7.57;2.10;;;6.50;99.90;;;;;;5005217;28;20160;-77
2023/03/26 04:17:24;;;;;;;12.38;1.98;;;6.50;99.90;;;;;;5003301;28;20042;-79
2023/03/26 04:19:54;;;;;;;16.75;3.10;;;6.50;99.90;;;;;;4982330;28;20054;-76
2023/03/26 04:22:20;;;;;;;10.95;2.20;;;6.50;99.90;;;;;;4997803;28;20046;-79
2023/03/26 04:24:47;;;;;;;13.73;2.70;;;6.50;99.90;;;;;;4999875;28;20050;-77
2023/03/26 04:27:20;;;;;;;12.82;2.00;;;6.50;99.90;;;;;;4999154;28;20492;-76
2023/03/26 04:29:48;;;;;;;11.45;2.25;;;6.50;99.90;;;;;;5007703;28;20082;-76
2023/03/26 04:32:29;;;;;;;16.13;2.55;;;6.50;99.90;;;;;;5018132;28;20042;-75
2023/03/26 04:34:59;;;;;;;10.48;1.95;;;6.50;99.90;;;;;;4988969;28;20043;-76
2023/03/26 04:37:40;;;;;;;15.02;2.47;;;6.50;99.90;;;;;;5000058;28;20057;-76
2023/03/26 04:40:18;;;;;;;10.88;2.15;;;6.50;99.90;;;;;;4983399;28;20046;-76
2023/03/26 04:42:46;;;;;;;10.60;2.63;;;6.50;99.90;;;;;;4981844;28;20046;-80
2023/03/26 04:45:21;;;;;;;17.27;2.90;;;6.50;99.90;;;;;;4997010;28;20105;-76
2023/03/26 04:47:49;;;;;;;14.23;2.78;;;6.50;99.90;;;;;;4982344;28;20042;-75
2023/03/26 04:50:15;;;;;;;15.60;2.60;;;6.50;99.90;;;;;;4982986;28;20091;-76
2023/03/26 04:52:41;;;;;;;11.68;2.30;;;6.50;99.90;;;;;;4997484;28;20086;-76
2023/03/26 04:55:19;;;;;;;12.23;2.38;;;6.50;99.90;;;;;;4981944;28;20057;-76
2023/03/26 04:57:51;;;;;;;12.13;2.47;;;6.50;99.90;;;;;;4981505;28;20046;-77
2023/03/26 05:00:19;;;;;;;10.95;2.03;;;6.80;99.90;;;;;;4982236;28;20053;-77
2023/03/26 05:02:48;;;;;;;13.27;2.90;;;6.40;99.90;;;;;;4998586;28;20121;-76
2023/03/26 05:05:15;;;;;;;13.10;2.53;;;6.40;99.90;;;;;;4982151;28;20086;-77
2023/03/26 05:07:41;;;;;;;16.75;2.42;;;6.40;99.90;;;;;;4982408;28;20137;-74
2023/03/26 05:10:10;;;;;;;11.73;3.03;;;6.40;99.90;;;;;;4997717;28;20571;-76
2023/03/26 05:12:36;;;;;;;14.40;2.45;;;6.40;99.90;;;;;;4998815;28;20287;-76
2023/03/26 05:15:01;;;;;;;9.32;2.13;;;6.40;99.90;;;;;;4997915;28;20133;-76
2023/03/26 05:17:29;;;;;;;14.32;3.38;;;6.40;99.90;;;;;;4998437;28;20496;-77
2023/03/26 05:19:56;;;;;;;12.38;2.28;;;6.40;99.90;;;;;;4998556;28;20096;-75
2023/03/26 05:22:22;;;;;;;16.23;2.13;;;6.40;99.90;;;;;;4979910;28;20050;-76
2023/03/26 05:24:50;;;;;;;13.45;2.40;;;6.40;99.90;;;;;;4998862;28;20133;-76
2023/03/26 05:27:15;;;;;;;17.08;2.67;;;6.30;99.90;;;;;;4965867;28;20041;-80
2023/03/26 05:29:42;;;;;;;9.38;2.22;;;6.30;99.90;;;;;;4998714;28;20053;-77
2023/03/26 05:32:09;;;;;;;14.30;2.53;;;6.30;99.90;;;;;;4997801;28;20042;-76
2023/03/26 05:34:37;;;;;;;15.82;2.58;;;6.30;99.90;;;;;;4997904;28;20101;-76
2023/03/26 05:37:05;;;;;;;22.38;2.30;;;6.30;99.90;;;;;;4998724;28;20043;-76
2023/03/26 05:39:32;;;;;;;9.52;2.40;;;6.30;99.90;;;;;;4982348;28;20479;-76
2023/03/26 05:41:58;;;;;;;9.30;2.25;;;6.30;99.90;;;;;;4997594;28;20055;-78
2023/03/26 05:44:24;;;;;;;12.95;3.50;;;6.30;99.90;;;;;;4983042;28;20081;-76
2023/03/26 05:46:50;;;;;;;13.20;2.10;;;6.30;99.90;;;;;;4982218;28;20085;-74
2023/03/26 05:49:15;;;;;;;9.73;1.92;;;6.30;99.90;;;;;;4999879;28;20053;-75
2023/03/26 05:51:41;;;;;;;14.35;2.83;;;6.30;99.90;;;;;;5000839;28;20061;-75
2023/03/26 05:54:07;;;;;;;13.80;2.67;;;6.30;99.90;;;;;;4967115;28;20042;-77
2023/03/26 05:56:33;;;;;;;11.95;2.33;;;6.30;99.90;;;;;;4982495;28;20551;-76
2023/03/26 05:58:58;;;;;;;15.15;2.95;;;6.30;99.90;;;;;;4980542;28;20050;-76
2023/03/26 06:01:24;;;;;;;13.05;2.30;;;6.30;99.90;;;;;;4981809;28;20061;-76
2023/03/26 06:03:50;;;;;;;12.27;3.03;;;6.30;99.90;;;;;;4997814;28;20409;-76
2023/03/26 06:06:19;;;;;;;14.20;2.38;;;6.30;99.90;;;;;;4997774;28;20050;-76
2023/03/26 06:08:48;;;;;;;13.30;2.38;;;6.30;99.90;;;;;;4997982;28;20485;-77
2023/03/26 06:11:15;;;;;;;11.65;2.80;;;6.40;99.90;;;;;;4980625;28;20165;-77
2023/03/26 06:13:41;;;;;;;10.32;2.33;;;6.40;99.90;;;;;;4981237;28;20041;-77
2023/03/26 06:16:10;;;;;;;16.58;2.60;;;6.40;99.90;;;;;;4999483;28;20133;-77
2023/03/26 06:18:36;;;;;;;14.38;2.53;;;6.40;99.90;;;;;;4982458;28;20197;-77
2023/03/26 06:21:03;;;;;;;9.18;2.33;;;6.40;99.90;;;;;;4997889;28;20141;-77
2023/03/26 06:23:29;;;;;;;13.98;2.28;;;6.40;99.90;;;;;;4998566;28;20049;-77
2023/03/26 06:25:56;;;;;;;14.57;2.88;;;6.40;99.90;;;;;;4982174;28;20050;-77
2023/03/26 06:28:24;;;;;;;13.68;2.88;;;6.40;99.90;;;;;;4998556;28;20115;-76
2023/03/26 06:30:50;;;;;;;15.25;2.75;;;6.40;99.90;;;;;;4982835;28;20116;-77
2023/03/26 06:33:16;;;;;;;14.20;2.80;;;6.50;99.90;;;;;;4990645;28;20146;-77
2023/03/26 06:35:44;;;;;;;17.75;2.97;;;6.50;99.90;;;;;;4998159;28;20562;-79
2023/03/26 06:38:11;;;;;;;14.27;3.20;;;6.50;99.90;;;;;;4996953;28;20487;-78
2023/03/26 06:40:40;;;;;;;11.02;2.65;;;6.50;99.90;;;;;;4991089;28;20050;-77
2023/03/26 06:43:05;;;;;;;9.50;2.50;;;6.60;99.90;;;;;;4952180;28;20053;-77
2023/03/26 06:45:32;;;;;;;11.77;2.00;;;6.60;99.90;;;;;;4984790;28;20054;-77
2023/03/26 06:47:58;;;;;;;11.60;2.38;;;7.50;99.90;;;;;;4983809;28;20070;-79
2023/03/26 06:50:25;;;;;;;14.15;2.63;;;6.70;99.90;;;;;;5001370;28;20139;-77
2023/03/26 06:52:55;;;;;;;11.73;2.13;;;6.70;99.90;;;;;;5000742;28;20050;-78
2023/03/26 06:55:21;;;;;;;8.73;2.05;;;6.70;99.90;;;;;;4984313;28;20064;-78
2023/03/26 06:57:48;;;;;;;10.35;2.45;;;6.70;99.90;;;;;;4993229;28;20053;-77
2023/03/26 07:00:16;;;;;;;7.70;2.20;;;6.80;99.90;;;;;;4984371;28;20068;-79
2023/03/26 07:02:41;;;;;;;10.30;1.90;;;6.80;99.90;;;;;;4985577;28;20370;-77
2023/03/26 07:05:26;;;;;;;14.68;2.15;;;6.80;99.90;;;;;;4994700;28;20046;-77
2023/03/26 07:07:52;;;;;;;13.00;2.17;;;6.80;99.90;;;;;;5003804;28;20404;-77
2023/03/26 07:10:18;;;;;;;6.95;1.80;;;6.90;99.90;;;;;;5000720;28;20042;-78
2023/03/26 07:12:50;;;;;;;8.32;1.80;;;6.90;99.90;;;;;;4981946;28;20057;-77
2023/03/26 07:15:16;;;;;;;12.57;2.75;;;6.90;99.90;;;;;;4985667;28;20289;-77
2023/03/26 07:17:41;;;;;;;10.18;2.60;;;7.00;99.90;;;;;;4983234;28;20910;-79
2023/03/26 07:20:08;;;;;;;12.55;2.92;;;7.00;99.90;;;;;;4983324;28;20049;-77
2023/03/26 07:22:34;;;;;;;13.65;2.22;;;7.00;99.90;;;;;;4999460;28;20161;-75
2023/03/26 07:25:11;;;;;;;12.23;2.17;;;7.10;99.90;;;;;;4993261;28;20096;-76
2023/03/26 07:27:43;;;;;;;12.50;2.30;;;7.10;99.90;;;;;;4983697;28;20046;-76
2023/03/26 07:30:23;;;;;;;6.97;2.10;;;7.10;99.90;;;;;;5007782;28;20916;-78
2023/03/26 07:32:53;;;;;;;9.43;2.50;;;7.20;99.90;;;;;;4979820;28;20064;-78
2023/03/26 07:35:54;;;;;;;14.38;3.00;;;7.20;99.90;;;;;;5005856;28;20507;-79
2023/03/26 07:38:41;;;;;;;12.20;2.83;;;7.30;99.90;;;;;;4999518;28;20049;-76
2023/03/26 07:41:18;;;;;;;12.40;2.40;;;7.30;99.90;;;;;;4982698;28;20077;-78
2023/03/26 07:43:50;;;;;;;11.98;4.15;;;7.30;99.90;;;;;;4999805;28;20050;-77
2023/03/26 07:46:19;;;;;;;12.40;2.30;;;7.30;99.90;;;;;;4983488;28;20137;-77
2023/03/26 07:48:50;;;;;;;9.40;2.70;;;7.40;99.90;;;;;;4983353;28;20054;-77
2023/03/26 07:51:17;;;;;;;14.65;2.60;;;7.40;99.90;;;;;;4998735;28;20054;-78
2023/03/26 07:53:43;;;;;;;8.40;2.00;;;7.50;99.90;;;;;;4983198;28;20041;-76
2023/03/26 07:56:40;;;;;;;10.60;2.38;;;7.50;99.90;;;;;;4996448;28;20278;-77
2023/03/26 07:59:26;;;;;;;16.60;2.58;;;7.60;99.90;;;;;;5012641;28;20057;-78
2023/03/26 08:02:31;;;;;;;11.43;2.67;;;7.60;99.90;;;;;;4982526;28;20064;-77
2023/03/26 08:05:21;;;;;;;8.77;2.13;;;8.90;99.90;;;;;;4982692;28;20477;-77
2023/03/26 08:07:59;;;;;;;15.93;2.22;;;7.70;99.90;;;;;;4998928;28;20058;-78
2023/03/26 08:10:30;;;;;;;7.85;1.92;;;7.70;99.90;;;;;;5014451;28;20062;-77
2023/03/26 08:13:31;;;;;;;10.27;2.40;;;7.80;99.90;;;;;;4998929;28;20050;-77
2023/03/26 08:16:04;;;;;;;9.52;1.90;;;7.90;99.90;;;;;;4998743;28;20050;-77
2023/03/26 08:18:58;;;;;;;9.20;2.60;;;8.00;99.90;;;;;;4997599;28;20054;-77
2023/03/26 08:21:34;;;;;;;12.57;2.38;;;8.00;99.90;;;;;;4982443;28;20611;-78
2023/03/26 08:24:21;;;;;;;10.15;2.47;;;8.10;99.90;;;;;;4998848;28;20417;-76
2023/03/26 08:27:12;;;;;;;8.73;2.47;;;8.10;99.90;;;;;;4999208;28;20570;-77
2023/03/26 08:29:50;;;;;;;7.05;2.03;;;8.10;99.90;;;;;;5004856;28;20088;-75
2023/03/26 08:32:19;;;;;;;10.15;2.45;;;8.20;99.90;;;;;;4982825;28;20631;-78
2023/03/26 08:34:46;;;;;;;9.52;2.33;;;8.20;99.90;;;;;;4983200;28;20137;-77
2023/03/26 08:37:11;;;;;;;15.60;2.35;;;8.30;99.90;;;;;;4965732;28;20057;-77
2023/03/26 08:39:38;;;;;;;7.60;2.65;;;8.30;99.90;;;;;;4997556;28;20050;-78
2023/03/26 08:42:34;;;;;;;13.90;2.72;;;8.40;99.90;;;;;;4998658;28;20133;-77
2023/03/26 08:45:06;;;;;;;12.52;2.35;;;8.40;99.90;;;;;;4973773;28;20050;-74
2023/03/26 08:48:20;;;;;;;12.52;3.00;;;8.40;99.90;;;;;;4998427;28;20114;-75
2023/03/26 08:51:12;;;;;;;12.50;2.50;;;8.40;99.90;;;;;;4971155;28;20084;-77
2023/03/26 08:54:13;;;;;;;11.13;3.25;;;8.50;99.90;;;;;;4996872;28;20124;-77
2023/03/26 08:56:42;;;;;;;9.52;2.47;;;8.50;99.90;;;;;;4996149;28;20065;-77
2023/03/26 08:59:19;;;;;;;11.13;2.17;;;8.60;99.90;;;;;;4997918;28;20547;-76
2023/03/26 09:01:51;;;;;;;10.10;2.10;;;8.70;99.90;;;;;;4998124;28;20061;-77
2023/03/26 09:04:35;;;;;;;14.80;2.30;;;8.70;99.90;;;;;;4998058;28;20046;-77
2023/03/26 09:07:23;;;;;;;7.80;2.20;;;8.80;99.90;;;;;;4997952;28;20085;-78
2023/03/26 09:10:43;;;;;;;13.25;2.60;;;8.90;99.90;;;;;;4998385;28;20041;-76
2023/03/26 09:13:27;;;;;;;9.32;2.17;;;9.00;99.90;;;;;;4926463;28;20051;-78
2023/03/26 09:16:21;;;;;;;13.18;2.55;;;9.00;99.90;;;;;;4991978;28;20049;-77
2023/03/26 09:19:17;;;;;;;8.77;2.67;;;9.10;99.90;;;;;;4997830;28;20049;-77
2023/03/26 09:22:07;;;;;;;12.75;2.92;;;9.10;99.90;;;;;;4999700;28;20050;-76
2023/03/26 09:24:47;;;;;;;10.40;3.33;;;9.20;99.90;;;;;;4997940;28;20042;-77
2023/03/26 09:27:47;;;;;;;11.63;3.00;;;9.20;99.90;;;;;;4995424;28;20100;-77
2023/03/26 09:30:36;;;;;;;11.05;3.08;;;9.30;99.90;;;;;;4996130;28;20054;-77
2023/03/26 09:33:17;;;;;;;17.33;3.15;;;9.40;99.90;;;;;;5005848;28;20047;-77
2023/03/26 09:36:06;;;;;;;9.48;2.53;;;9.50;99.90;;;;;;4996993;28;20053;-75
2023/03/26 09:39:07;;;;;;;17.63;5.47;;;9.50;99.90;;;;;;4978528;28;20069;-76
2023/03/26 09:41:51;;;;;;;12.98;3.25;;;9.60;99.90;;;;;;4996795;28;20053;-75
2023/03/26 09:44:35;;;;;;;9.20;2.33;;;9.60;99.90;;;;;;4996913;28;20589;-78
2023/03/26 09:47:21;;;;;;;8.20;1.58;;;9.70;99.90;;;;;;4996980;28;20427;-78
2023/03/26 09:50:14;;;;;;;10.63;3.10;;;9.70;99.90;;;;;;4985692;28;20081;-77
2023/03/26 09:52:53;;;;;;;9.15;2.95;;;9.80;99.90;;;;;;5023754;28;20058;-78
2023/03/26 09:55:33;;;;;;;9.48;2.00;;;9.70;99.90;;;;;;4996404;28;20060;-80
2023/03/26 09:58:20;;;;;;;12.30;3.55;;;9.70;99.90;;;;;;4998573;28;20129;-76
2023/03/26 10:00:49;;;;;;;13.95;3.28;;;9.80;99.90;;;;;;4981787;28;20434;-77
2023/03/26 10:03:23;;;;;;;13.07;3.13;;;9.80;99.90;;;;;;4997931;28;20038;-76
2023/03/26 10:06:16;;;;;;;7.63;2.30;;;9.90;99.90;;;;;;4981184;28;20405;-81
2023/03/26 10:08:58;;;;;;;9.93;2.53;;;9.90;99.90;;;;;;4986901;28;20143;-77
2023/03/26 10:11:45;;;;;;;10.35;2.40;;;10.00;99.90;;;;;;4997981;28;20578;-76
2023/03/26 10:14:51;;;;;;;11.85;3.08;;;10.00;99.90;;;;;;4980051;28;20050;-76
2023/03/26 10:17:41;;;;;;;8.57;2.42;;;10.10;99.90;;;;;;4997710;28;20474;-75
2023/03/26 10:20:48;;;;;;;11.30;2.97;;;10.00;99.90;;;;;;5001400;28;20412;-76
2023/03/26 10:23:23;;;;;;;10.15;2.42;;;10.10;99.90;;;;;;4994260;28;20054;-75
2023/03/26 10:26:13;;;;;;;12.25;2.33;;;10.20;99.90;;;;;;5004421;28;20106;-78
2023/03/26 10:28:52;;;;;;;10.80;2.38;;;10.20;99.90;;;;;;5003626;28;20544;-75
2023/03/26 10:31:39;;;;;;;9.30;2.28;;;10.20;99.90;;;;;;4994020;28;20069;-75
2023/03/26 10:34:08;;;;;;;7.45;1.90;;;10.20;99.90;;;;;;5000675;28;20041;-75
2023/03/26 10:37:03;;;;;;;11.18;2.28;;;10.10;99.90;;;;;;5000997;28;20128;-74
2023/03/26 10:40:11;;;;;;;9.88;2.63;;;10.10;99.90;;;;;;4999577;28;20699;-75
2023/03/26 10:43:14;;;;;;;9.98;2.58;;;10.10;99.90;;;;;;5001353;28;20053;-76
2023/03/26 10:45:59;;;;;;;8.52;1.92;;;10.30;99.90;;;;;;4998973;28;20054;-75
2023/03/26 10:48:49;;;;;;;9.65;2.35;;;10.40;99.90;;;;;;4999998;28;20108;-76
2023/03/26 10:51:39;;;;;;;7.20;1.60;;;10.40;99.90;;;;;;5001552;28;20049;-77
2023/03/26 10:54:36;;;;;;;8.50;1.70;;;10.40;99.90;;;;;;5000126;28;20080;-77
2023/03/26 10:57:10;;;;;;;8.45;1.88;;;10.40;99.90;;;;;;4999947;28;20076;-76
2023/03/26 10:59:36;;;;;;;7.65;1.90;;;10.40;99.90;;;;;;5007191;28;20062;-77
2023/03/26 11:02:52;;;;;;;10.63;2.45;;;10.50;99.90;;;;;;4984394;28;20141;-77
2023/03/26 11:05:42;;;;;;;7.75;2.30;;;10.60;99.90;;;;;;4955325;28;20137;-76
2023/03/26 11:08:22;;;;;;;5.97;1.70;;;10.70;99.90;;;;;;4979589;28;20077;-76
2023/03/26 11:10:51;;;;;;;6.22;2.30;;;10.70;99.90;;;;;;4977666;28;20069;-77
2023/03/26 11:13:16;;;;;;;9.38;2.15;;;10.80;99.90;;;;;;4999940;28;20042;-77
2023/03/26 11:15:52;;;;;;;7.18;1.98;;;10.80;99.90;;;;;;5001082;28;20472;-77
2023/03/26 11:18:49;;;;;;;6.50;1.95;;;10.80;99.90;;;;;;4983905;28;20523;-77
2023/03/26 11:21:23;;;;;;;9.00;2.47;;;10.70;99.90;;;;;;4999239;28;20042;-76
2023/03/26 11:24:07;;;;;;;10.93;2.70;;;10.70;99.90;;;;;;4983922;28;20115;-78
2023/03/26 11:26:57;;;;;;;8.80;2.33;;;10.80;99.90;;;;;;4997684;28;20042;-76
2023/03/26 11:29:35;;;;;;;10.48;2.13;;;10.80;99.90;;;;;;4999544;28;20050;-76
2023/03/26 11:32:16;;;;;;;10.50;2.85;;;10.80;99.90;;;;;;4983606;28;20057;-76
2023/03/26 11:35:04;;;;;;;7.03;2.20;;;10.80;99.90;;;;;;4999084;28;20699;-77
2023/03/26 11:37:40;;;;;;;7.40;2.53;;;10.80;99.90;;;;;;4998133;28;20054;-76
2023/03/26 11:40:15;;;;;;;11.35;2.70;;;10.80;99.90;;;;;;4983438;28;20050;-77
2023/03/26 11:42:42;;;;;;;11.02;3.35;;;10.80;99.90;;;;;;4999213;28;20531;-76
2023/03/26 11:45:17;;;;;;;10.38;2.92;;;10.80;99.90;;;;;;4999290;28;20062;-76
2023/03/26 11:47:54;;;;;;;7.40;2.78;;;10.80;99.90;;;;;;4998319;28;20073;-77
2023/03/26 11:50:25;;;;;;;8.77;1.75;;;10.70;99.90;;;;;;5015751;28;20061;-77
2023/03/26 11:52:57;;;;;;;9.20;2.45;;;10.70;99.90;;;;;;4983817;28;20050;-79
2023/03/26 11:55:26;;;;;;;6.63;1.90;;;10.70;99.90;;;;;;4984626;28;20054;-78
2023/03/26 11:57:58;;;;;;;7.18;2.20;;;11.10;99.90;;;;;;4966154;28;20049;-77
2023/03/26 12:00:26;;;;;;;5.82;2.05;;;12.00;99.90;;;;;;4999080;28;20629;-77
2023/03/26 12:02:57;;;;;;;9.90;2.78;;;12.20;99.90;;;;;;4999546;28;20440;-78
2023/03/26 12:05:32;;;;;;;9.05;2.30;;;12.20;99.90;;;;;;4982480;28;20045;-78
2023/03/26 12:08:00;;;;;;;13.90;3.75;;;12.00;99.90;;;;;;4983300;28;20050;-77
2023/03/26 12:10:38;;;;;;;9.60;3.70;;;11.90;99.90;;;;;;4982563;28;20081;-78
2023/03/26 12:13:26;;;;;;;20.67;6.32;;;11.70;99.90;;;;;;4998741;28;20464;-77
2023/03/26 12:16:09;;;;;;;5.95;2.08;;;11.80;99.90;;;;;;4999282;28;20056;-78
2023/03/26 12:18:38;;;;;;;6.97;2.00;;;11.90;99.90;;;;;;4998169;28;20177;-77
2023/03/26 12:21:17;;;;;;;6.20;1.80;;;11.80;99.90;;;;;;4998043;28;20050;-76
2023/03/26 12:24:01;;;;;;;7.22;1.80;;;11.80;99.90;;;;;;4998912;28;20057;-76
2023/03/26 12:26:43;;;;;;;7.38;1.77;;;11.90;99.90;;;;;;4982782;28;20457;-77
2023/03/26 12:29:12;;;;;;;7.13;2.13;;;11.60;99.90;;;;;;4990433;28;20599;-76
2023/03/26 12:31:48;;;;;;;8.48;1.70;;;11.60;99.90;;;;;;5011153;28;20065;-76
2023/03/26 12:34:17;;;;;;;7.38;1.73;;;11.60;99.90;;;;;;4998858;28;20046;-77
2023/03/26 12:36:54;;;;;;;5.88;1.60;;;11.60;99.90;;;;;;4986622;28;20053;-77
2023/03/26 12:39:41;;;;;;;9.60;2.10;;;11.60;99.90;;;;;;5006711;28;20076;-79
2023/03/26 12:42:27;;;;;;;6.90;1.65;;;11.50;99.90;;;;;;4998958;28;20108;-77
2023/03/26 12:44:56;;;;;;;6.82;1.58;;;11.40;99.90;;;;;;4997210;28;20058;-77
2023/03/26 12:47:29;;;;;;;7.97;1.45;;;11.40;99.90;;;;;;4982256;28;20058;-76
2023/03/26 12:49:56;;;;;;;6.20;2.03;;;11.30;99.90;;;;;;4997883;28;20054;-76
2023/03/26 12:52:37;;;;;;;9.18;2.67;;;11.30;99.90;;;;;;4998630;28;20050;-78
2023/03/26 12:55:12;;;;;;;8.32;2.45;;;11.20;99.90;;;;;;5014199;28;20096;-79
2023/03/26 12:58:01;;;;;;;5.78;1.60;;;11.10;99.90;;;;;;4998241;28;20402;-78
2023/03/26 13:01:14;;;;;;;7.50;2.10;;;11.00;99.90;;;;;;4999944;28;20113;-75
2023/03/26 13:04:03;;;;;;;9.98;1.98;;;10.80;99.90;;;;;;4998966;28;20090;-76
2023/03/26 13:06:52;;;;;;;9.45;1.90;;;10.70;99.90;;;;;;4997856;28;20056;-76
2023/03/26 13:09:48;;;;;;;8.95;2.92;;;10.60;99.90;;;;;;4999094;28;20108;-78
2023/03/26 13:12:40;;;;;;;9.07;2.87;;;10.50;99.90;;;;;;5015182;28;20173;-77
2023/03/26 13:15:11;;;;;;;8.30;1.92;;;10.40;99.90;;;;;;5006603;28;20347;-77
2023/03/26 13:17:42;;;;;;;6.28;1.60;;;10.40;99.90;;;;;;4998134;28;20503;-76
2023/03/26 13:20:36;;;;;;;7.90;1.90;;;10.40;99.90;;;;;;4998312;28;20078;-79
2023/03/26 13:23:23;;;;;;;5.72;1.60;;;10.70;99.90;;;;;;4999297;28;20505;-77
2023/03/26 13:26:10;;;;;;;8.35;1.80;;;10.90;99.90;;;;;;5000637;28;20050;-76
2023/03/26 13:28:51;;;;;;;5.07;1.58;;;11.00;99.90;;;;;;4981653;28;20077;-76